Time;durP1;ratioP1;P1;durP2;ratioP2;P2;SDS_P1;SDS_P2;PMS_P1;PMS_P2;Temp;Humidity;BMP_temperature;BMP_pressure;BME280_temperature;BME280_humidity;BME280_pressure;Samples;Min_cycle;Max_cycle;Signal;HPM_P1;HPM_P2
2022/12/20 00:00:24;;;;;;;256.92;30.27;;;-7.60;99.90;;;;;;4114042;28;20026;-59
2022/12/20 00:02:25;;;;;;;194.75;26.33;;;-7.60;99.90;;;;;;4113071;28;20022;-58
2022/12/20 00:04:26;;;;;;;63.22;19.05;;;-7.60;99.90;;;;;;4114126;28;20023;-59
2022/12/20 00:06:28;;;;;;;53.03;18.02;;;-7.50;99.90;;;;;;4095090;29;20110;-58
2022/12/20 00:08:29;;;;;;;63.03;20.15;;;-7.50;99.90;;;;;;4098081;29;20027;-61
2022/12/20 00:10:30;;;;;;;63.15;22.52;;;-7.50;99.90;;;;;;4096238;28;20555;-61
2022/12/20 00:12:31;;;;;;;57.63;19.77;;;-7.50;99.90;;;;;;4095748;29;20043;-59
2022/12/20 00:14:32;;;;;;;64.93;21.73;;;-7.50;99.90;;;;;;4096832;28;20106;-61
2022/12/20 00:16:36;;;;;;;64.40;21.70;;;-7.50;99.90;;;;;;4097252;29;20087;-60
2022/12/20 00:18:38;;;;;;;52.05;19.70;;;-7.40;99.90;;;;;;4096468;28;20546;-61
2022/12/20 00:20:39;;;;;;;52.33;20.58;;;-7.40;99.90;;;;;;4096865;29;20022;-61
2022/12/20 00:22:40;;;;;;;53.70;20.30;;;-7.30;99.90;;;;;;4097654;29;20023;-60
2022/12/20 00:24:41;;;;;;;56.47;18.52;;;-7.40;99.90;;;;;;4096451;29;20098;-59
2022/12/20 00:26:43;;;;;;;57.60;19.92;;;-7.30;99.90;;;;;;4097797;28;20050;-59
2022/12/20 00:28:44;;;;;;;62.30;21.00;;;-7.30;99.90;;;;;;4096730;29;20031;-58
2022/12/20 00:30:45;;;;;;;65.82;20.23;;;-7.30;99.90;;;;;;4097744;28;20043;-59
2022/12/20 00:32:47;;;;;;;73.78;22.17;;;-7.40;99.90;;;;;;4096524;28;20031;-60
2022/12/20 00:34:48;;;;;;;56.58;19.52;;;-7.40;99.90;;;;;;4097220;28;20055;-58
2022/12/20 00:36:49;;;;;;;60.90;20.73;;;-7.30;99.90;;;;;;4096355;29;20095;-59
2022/12/20 00:38:52;;;;;;;55.92;19.13;;;-7.30;99.90;;;;;;4097644;29;20027;-59
2022/12/20 00:41:05;;;;;;;62.28;18.38;;;-7.30;99.90;;;;;;4096441;29;20019;-61
2022/12/20 00:43:06;;;;;;;51.95;18.65;;;-7.20;99.90;;;;;;4095162;29;20047;-61
2022/12/20 00:45:08;;;;;;;84.25;20.20;;;-7.30;99.90;;;;;;4096434;29;20031;-59
2022/12/20 00:47:09;;;;;;;115.45;22.33;;;-7.20;99.90;;;;;;4097221;29;20137;-61
2022/12/20 00:49:10;;;;;;;176.43;25.60;;;-7.20;99.90;;;;;;4096874;29;20035;-62
2022/12/20 00:51:15;;;;;;;63.50;17.95;;;-7.30;99.90;;;;;;4096770;29;20444;-61
2022/12/20 00:53:16;;;;;;;135.52;23.42;;;-7.20;99.90;;;;;;4095814;28;20059;-59
2022/12/20 00:55:17;;;;;;;57.08;18.95;;;-7.20;99.90;;;;;;4096227;28;20043;-61
2022/12/20 00:57:18;;;;;;;80.28;20.85;;;-7.30;99.90;;;;;;4097061;29;20428;-59
2022/12/20 00:59:20;;;;;;;62.45;19.65;;;-7.30;99.90;;;;;;4096346;29;20027;-60
2022/12/20 01:01:27;;;;;;;61.97;21.70;;;-7.30;99.90;;;;;;4097516;29;20090;-60
2022/12/20 01:03:28;;;;;;;61.85;20.58;;;-7.30;99.90;;;;;;4096224;29;20125;-60
2022/12/20 01:05:30;;;;;;;57.58;19.98;;;-7.30;99.90;;;;;;4097639;29;20027;-59
2022/12/20 01:07:32;;;;;;;65.63;20.38;;;-7.20;99.90;;;;;;4110254;28;20097;-59
2022/12/20 01:09:33;;;;;;;58.30;21.13;;;-7.10;99.90;;;;;;4113251;28;20030;-62
2022/12/20 01:11:36;;;;;;;67.70;20.13;;;-7.10;99.90;;;;;;4112217;28;20039;-58
2022/12/20 01:13:39;;;;;;;51.25;19.23;;;-7.10;99.90;;;;;;4113027;28;20030;-61
2022/12/20 01:15:40;;;;;;;49.90;19.35;;;-7.10;99.90;;;;;;4112065;28;20019;-61
2022/12/20 01:17:41;;;;;;;61.30;19.83;;;-7.10;99.90;;;;;;4113032;28;20034;-59
2022/12/20 01:19:43;;;;;;;51.85;19.08;;;-7.00;99.90;;;;;;4112087;28;20026;-59
2022/12/20 01:21:44;;;;;;;56.33;21.05;;;-7.00;99.90;;;;;;4112490;28;20034;-58
2022/12/20 01:23:45;;;;;;;76.85;20.15;;;-7.10;99.90;;;;;;4112117;28;20023;-57
2022/12/20 01:25:50;;;;;;;72.95;22.58;;;-7.10;99.90;;;;;;4112544;28;20089;-59
2022/12/20 01:27:51;;;;;;;60.35;20.85;;;-7.10;99.90;;;;;;4112651;28;20027;-61
2022/12/20 01:29:52;;;;;;;66.10;21.40;;;-7.10;99.90;;;;;;4112347;28;20431;-60
2022/12/20 01:31:53;;;;;;;54.83;20.02;;;-7.10;99.90;;;;;;4115828;28;20086;-61
2022/12/20 01:33:55;;;;;;;63.63;20.48;;;-7.20;99.90;;;;;;4115191;28;20085;-64
2022/12/20 01:36:01;;;;;;;61.63;22.83;;;-7.10;99.90;;;;;;4116413;28;20365;-62
2022/12/20 01:38:03;;;;;;;62.90;22.67;;;-7.10;99.90;;;;;;4115106;28;20038;-66
2022/12/20 01:40:04;;;;;;;93.00;22.20;;;-7.20;99.90;;;;;;4115485;28;20046;-57
2022/12/20 01:42:06;;;;;;;61.55;21.45;;;-7.10;99.90;;;;;;4115029;28;20027;-59
2022/12/20 01:44:15;;;;;;;76.78;21.63;;;-7.20;99.90;;;;;;4115442;28;20039;-60
2022/12/20 01:46:19;;;;;;;69.43;21.08;;;-7.20;99.90;;;;;;4115092;28;20026;-60
2022/12/20 01:48:25;;;;;;;64.05;21.77;;;-7.20;99.90;;;;;;4116216;28;20436;-60
2022/12/20 01:50:26;;;;;;;66.05;22.00;;;-7.20;99.90;;;;;;4115027;28;20090;-59
2022/12/20 01:52:33;;;;;;;96.53;22.83;;;-7.20;99.90;;;;;;4115945;28;20034;-56
2022/12/20 01:54:42;;;;;;;77.43;23.10;;;-7.20;99.90;;;;;;4114757;28;20490;-59
2022/12/20 01:56:50;;;;;;;68.28;20.15;;;-7.30;99.90;;;;;;4115345;28;20093;-58
2022/12/20 01:58:53;;;;;;;84.80;21.80;;;-7.30;99.90;;;;;;4113906;28;20491;-59
2022/12/20 02:00:55;;;;;;;65.00;19.90;;;-7.30;99.90;;;;;;4115278;28;20093;-60
2022/12/20 02:03:00;;;;;;;55.15;21.25;;;-7.40;99.90;;;;;;4114714;28;20081;-60
2022/12/20 02:05:01;;;;;;;71.13;21.27;;;-7.40;99.90;;;;;;4116026;28;20031;-59
2022/12/20 02:07:03;;;;;;;58.70;21.13;;;-7.40;99.90;;;;;;4113900;28;20058;-59
2022/12/20 02:09:07;;;;;;;64.78;21.38;;;-7.40;99.90;;;;;;4114044;28;20039;-61
2022/12/20 02:11:30;;;;;;;62.33;21.63;;;-7.40;99.90;;;;;;4114290;28;20189;-58
2022/12/20 02:13:53;;;;;;;58.25;20.05;;;-7.50;99.90;;;;;;4115153;28;20034;-61
2022/12/20 02:15:56;;;;;;;59.83;21.00;;;-7.50;99.90;;;;;;4114333;28;20054;-58
2022/12/20 02:18:03;;;;;;;63.47;23.73;;;-7.50;99.90;;;;;;4115399;28;20561;-61
2022/12/20 02:20:37;;;;;;;60.55;21.60;;;-7.50;99.90;;;;;;4114355;28;20051;-58
2022/12/20 02:22:48;;;;;;;59.83;20.10;;;-7.50;99.90;;;;;;4115796;28;20035;-61
2022/12/20 02:25:13;;;;;;;61.97;21.17;;;-7.50;99.90;;;;;;4114500;28;20043;-59
2022/12/20 02:27:33;;;;;;;64.57;22.40;;;-7.50;99.90;;;;;;4079013;28;20114;-59
2022/12/20 02:30:01;;;;;;;59.53;21.40;;;-7.50;99.90;;;;;;4113398;28;20043;-61
2022/12/20 02:32:19;;;;;;;57.83;22.65;;;-7.50;99.90;;;;;;4115155;28;20035;-59
2022/12/20 02:34:26;;;;;;;67.55;22.50;;;-7.60;99.90;;;;;;4114294;28;20443;-59
2022/12/20 02:36:27;;;;;;;64.22;19.95;;;-7.60;99.90;;;;;;4115729;28;21091;-59
2022/12/20 02:38:34;;;;;;;65.78;23.95;;;-7.60;99.90;;;;;;4113830;28;20384;-61
2022/12/20 02:40:39;;;;;;;64.05;23.10;;;-7.70;99.90;;;;;;4114619;28;20093;-58
2022/12/20 02:42:42;;;;;;;63.00;21.75;;;-7.70;99.90;;;;;;4095471;29;20091;-61
2022/12/20 02:47:20;;;;;;;154.02;26.80;;;-7.80;99.90;;;;;;4114392;28;20098;-59
2022/12/20 02:49:26;;;;;;;196.15;29.95;;;-7.90;99.90;;;;;;4115087;28;20087;-54
2022/12/20 02:51:30;;;;;;;111.85;26.98;;;-7.90;99.90;;;;;;4113862;28;20026;-59
2022/12/20 02:53:32;;;;;;;93.15;24.00;;;-7.90;99.90;;;;;;4114438;28;20039;-58
2022/12/20 02:56:15;;;;;;;160.38;28.90;;;-8.00;99.90;;;;;;4113978;28;20035;-59
2022/12/20 02:58:33;;;;;;;85.95;25.40;;;-7.90;99.90;;;;;;4098669;29;20109;-60
2022/12/20 03:00:41;;;;;;;327.48;35.00;;;-7.90;99.90;;;;;;4101870;28;20077;-59
2022/12/20 03:05:05;;;;;;;132.10;29.90;;;-7.90;99.90;;;;;;4114644;28;20089;-58
2022/12/20 03:07:09;;;;;;;157.00;32.50;;;-7.90;99.90;;;;;;4114070;28;20046;-59
2022/12/20 03:09:10;;;;;;;124.78;27.33;;;-7.90;99.90;;;;;;4113923;28;20027;-60
2022/12/20 03:11:12;;;;;;;83.93;27.23;;;-7.90;99.90;;;;;;4114591;28;20042;-60
2022/12/20 03:13:13;;;;;;;144.75;31.95;;;-7.90;99.90;;;;;;4113706;28;20082;-59
2022/12/20 03:15:16;;;;;;;221.55;33.00;;;-8.00;99.90;;;;;;4114397;28;20489;-60
2022/12/20 03:17:17;;;;;;;129.45;28.15;;;-8.00;99.90;;;;;;4113656;28;20026;-55
2022/12/20 03:19:19;;;;;;;261.02;34.17;;;-8.00;99.90;;;;;;4113486;28;20063;-59
2022/12/20 03:21:20;;;;;;;251.80;33.10;;;-8.00;99.90;;;;;;4113550;28;20464;-62
2022/12/20 03:23:21;;;;;;;158.30;25.77;;;-8.00;99.90;;;;;;4114468;28;20031;-58
2022/12/20 03:25:22;;;;;;;217.65;32.30;;;-8.10;99.90;;;;;;4113640;28;20464;-58
2022/12/20 03:27:24;;;;;;;85.03;25.73;;;-8.10;99.90;;;;;;4113685;28;20039;-60
2022/12/20 03:29:26;;;;;;;86.00;26.92;;;-8.10;99.90;;;;;;4096549;28;20123;-60
2022/12/20 03:31:27;;;;;;;127.32;27.38;;;-8.00;99.90;;;;;;4113555;28;20050;-59
2022/12/20 03:33:28;;;;;;;87.75;27.05;;;-7.90;99.90;;;;;;4113855;28;20101;-59
2022/12/20 03:35:29;;;;;;;202.80;34.45;;;-7.90;99.90;;;;;;4114129;28;20038;-59
2022/12/20 03:37:30;;;;;;;160.40;30.60;;;-7.80;99.90;;;;;;4114105;28;20023;-57
2022/12/20 03:39:31;;;;;;;148.18;32.13;;;-7.80;99.90;;;;;;4113198;28;20086;-59
2022/12/20 03:41:33;;;;;;;103.57;27.67;;;-7.80;99.90;;;;;;4114155;28;20043;-60
2022/12/20 03:43:34;;;;;;;109.22;33.85;;;-7.80;99.90;;;;;;4112992;28;20106;-59
2022/12/20 03:45:35;;;;;;;163.02;47.38;;;-7.80;99.90;;;;;;4114341;28;20070;-59
2022/12/20 03:47:36;;;;;;;172.45;33.70;;;-7.80;99.90;;;;;;4112966;28;20113;-59
2022/12/20 03:49:37;;;;;;;107.55;29.77;;;-7.90;99.90;;;;;;4114136;28;20046;-60
2022/12/20 03:51:38;;;;;;;87.25;29.58;;;-7.90;99.90;;;;;;4112109;28;20109;-60
2022/12/20 03:53:39;;;;;;;95.20;31.15;;;-7.80;99.90;;;;;;4113890;28;20030;-59
2022/12/20 03:55:40;;;;;;;84.18;29.85;;;-7.80;99.90;;;;;;4112023;28;20110;-59
2022/12/20 03:57:41;;;;;;;101.82;32.22;;;-7.70;99.90;;;;;;4114162;28;20468;-61
2022/12/20 03:59:42;;;;;;;100.70;31.70;;;-7.70;99.90;;;;;;4113107;28;20019;-60
2022/12/20 04:01:43;;;;;;;99.00;32.25;;;-7.70;99.90;;;;;;4113712;28;20360;-60
2022/12/20 04:03:45;;;;;;;95.32;33.60;;;-7.70;99.90;;;;;;4112471;28;20988;-60
2022/12/20 04:05:46;;;;;;;104.13;37.50;;;-7.70;99.90;;;;;;4113451;28;20043;-59
2022/12/20 04:07:47;;;;;;;107.53;35.60;;;-7.60;99.90;;;;;;4113787;28;20035;-60
2022/12/20 04:09:48;;;;;;;111.05;35.65;;;-7.60;99.90;;;;;;4112844;28;20030;-61
2022/12/20 04:11:49;;;;;;;100.72;32.15;;;-7.60;99.90;;;;;;4112787;28;20078;-59
2022/12/20 04:13:53;;;;;;;89.53;30.95;;;-7.60;99.90;;;;;;4112781;28;20483;-60
2022/12/20 04:15:54;;;;;;;92.25;29.55;;;-7.60;99.90;;;;;;4113499;28;20081;-62
2022/12/20 04:17:55;;;;;;;91.60;28.88;;;-7.70;99.90;;;;;;4112724;28;20267;-59
2022/12/20 04:19:56;;;;;;;86.38;28.92;;;-7.80;99.90;;;;;;4112861;28;20039;-62
2022/12/20 04:21:57;;;;;;;82.72;29.27;;;-7.90;99.90;;;;;;4111051;28;20047;-62
2022/12/20 04:24:00;;;;;;;93.13;29.75;;;-7.90;99.90;;;;;;4113261;28;20090;-61
2022/12/20 04:26:03;;;;;;;91.00;30.02;;;-8.00;99.90;;;;;;4112711;28;20151;-62
2022/12/20 04:28:05;;;;;;;85.90;30.13;;;-8.00;99.90;;;;;;4113817;28;20085;-62
2022/12/20 04:30:06;;;;;;;88.85;28.23;;;-8.10;99.90;;;;;;4112472;28;20039;-67
2022/12/20 04:32:08;;;;;;;93.53;30.20;;;-8.10;99.90;;;;;;4097602;29;20035;-63
2022/12/20 04:34:09;;;;;;;98.22;36.92;;;-8.10;99.90;;;;;;4109329;28;20105;-64
2022/12/20 04:36:10;;;;;;;90.63;30.38;;;-8.10;99.90;;;;;;4113323;28;20034;-63
2022/12/20 04:38:11;;;;;;;120.57;31.85;;;-8.20;99.90;;;;;;4112832;28;20038;-67
2022/12/20 04:40:12;;;;;;;106.07;30.60;;;-8.20;99.90;;;;;;4112541;28;20089;-67
2022/12/20 04:42:13;;;;;;;108.45;31.40;;;-8.20;99.90;;;;;;4112538;28;20039;-66
2022/12/20 04:44:14;;;;;;;90.85;29.88;;;-8.30;99.90;;;;;;4112187;28;20491;-61
2022/12/20 04:46:16;;;;;;;116.75;31.27;;;-8.30;99.90;;;;;;4113479;28;20026;-68
2022/12/20 04:48:18;;;;;;;117.85;31.27;;;-8.30;99.90;;;;;;4099763;28;20035;-68
2022/12/20 04:50:19;;;;;;;122.43;32.88;;;-8.30;99.90;;;;;;4099456;28;20105;-66
2022/12/20 04:54:39;;;;;;;102.43;32.85;;;-8.40;99.90;;;;;;4114388;28;20179;-59
2022/12/20 04:56:40;;;;;;;106.72;35.15;;;-8.50;99.90;;;;;;4109517;28;20085;-67
2022/12/20 04:58:42;;;;;;;110.75;38.15;;;-8.40;99.90;;;;;;4109657;28;20093;-63
2022/12/20 05:00:43;;;;;;;116.47;37.35;;;-8.40;99.90;;;;;;4107679;28;20113;-62
2022/12/20 05:02:44;;;;;;;114.00;38.38;;;-8.40;99.90;;;;;;4109663;28;20030;-65
2022/12/20 05:04:45;;;;;;;114.43;40.35;;;-8.30;99.90;;;;;;4107436;28;20502;-66
2022/12/20 05:06:47;;;;;;;123.75;42.67;;;-8.20;99.90;;;;;;4107700;28;20050;-58
2022/12/20 05:08:48;;;;;;;107.07;37.17;;;-8.10;99.90;;;;;;4109283;28;20042;-61
2022/12/20 05:10:49;;;;;;;104.85;33.83;;;-8.10;99.90;;;;;;4108683;28;20031;-60
2022/12/20 05:12:50;;;;;;;106.68;34.47;;;-8.00;99.90;;;;;;4111931;28;20093;-61
2022/12/20 05:14:51;;;;;;;106.50;34.13;;;-8.00;99.90;;;;;;4111436;28;20051;-58
2022/12/20 05:16:52;;;;;;;97.25;32.85;;;-8.00;99.90;;;;;;4110792;28;20105;-57
2022/12/20 05:18:54;;;;;;;134.75;44.72;;;-8.00;99.90;;;;;;4095365;29;20766;-57
2022/12/20 05:28:09;;;;;;;111.43;38.05;;;-8.00;99.90;;;;;;4110862;28;20514;-60
2022/12/20 05:30:11;;;;;;;95.00;33.15;;;-7.90;99.90;;;;;;4110902;28;20042;-60
2022/12/20 05:32:12;;;;;;;93.88;31.05;;;-7.90;99.90;;;;;;4110491;28;20412;-60
2022/12/20 05:34:13;;;;;;;92.38;32.20;;;-7.90;99.90;;;;;;4111474;28;20039;-55
2022/12/20 05:36:14;;;;;;;94.22;33.78;;;-7.90;99.90;;;;;;4111910;28;20035;-60
2022/12/20 05:38:15;;;;;;;82.18;34.22;;;-7.90;99.90;;;;;;4111459;28;20102;-59
2022/12/20 05:40:16;;;;;;;97.50;37.22;;;-8.00;99.90;;;;;;4110584;28;20051;-66
2022/12/20 05:42:18;;;;;;;95.30;31.83;;;-8.00;99.90;;;;;;4112614;28;20034;-60
2022/12/20 05:44:21;;;;;;;75.88;29.33;;;-8.00;99.90;;;;;;4110684;28;20117;-59
2022/12/20 05:46:22;;;;;;;85.57;30.45;;;-8.10;99.90;;;;;;4111746;28;20046;-58
2022/12/20 05:48:23;;;;;;;86.88;30.63;;;-8.20;99.90;;;;;;4109969;28;20484;-58
2022/12/20 05:50:24;;;;;;;78.70;28.92;;;-8.20;99.90;;;;;;4111616;28;20042;-58
2022/12/20 05:52:26;;;;;;;82.57;28.73;;;-8.20;99.90;;;;;;4111239;28;20463;-60
2022/12/20 05:54:27;;;;;;;85.32;30.95;;;-8.20;99.90;;;;;;4111453;28;20050;-60
2022/12/20 05:56:28;;;;;;;93.60;31.23;;;-8.30;99.90;;;;;;4111314;28;20054;-59
2022/12/20 05:58:29;;;;;;;84.07;28.92;;;-8.20;99.90;;;;;;4112200;28;20031;-59
2022/12/20 06:00:30;;;;;;;83.30;29.98;;;-8.20;99.90;;;;;;4110706;28;20047;-60
2022/12/20 06:02:31;;;;;;;79.80;27.38;;;-8.20;99.90;;;;;;4110484;28;20491;-60
2022/12/20 06:04:33;;;;;;;94.28;31.05;;;-8.20;99.90;;;;;;4112224;28;20364;-59
2022/12/20 06:06:34;;;;;;;83.22;30.65;;;-8.20;99.90;;;;;;4110486;28;20051;-61
2022/12/20 06:08:35;;;;;;;95.30;30.67;;;-8.20;99.90;;;;;;4094583;29;20463;-60
2022/12/20 06:10:38;;;;;;;84.75;30.60;;;-8.10;99.90;;;;;;4111385;28;20085;-59
2022/12/20 06:12:40;;;;;;;75.53;30.35;;;-8.10;99.90;;;;;;4112449;28;20035;-58
2022/12/20 06:14:41;;;;;;;90.28;32.08;;;-8.10;99.90;;;;;;4110402;28;20043;-59
2022/12/20 06:16:42;;;;;;;80.10;30.80;;;-8.00;99.90;;;;;;4114009;28;20093;-61
2022/12/20 06:18:43;;;;;;;85.18;29.52;;;-8.00;99.90;;;;;;4113728;28;20035;-59
2022/12/20 06:20:52;;;;;;;88.93;32.08;;;-8.00;99.90;;;;;;4113542;28;20110;-66
2022/12/20 06:22:53;;;;;;;92.22;32.72;;;-7.90;99.90;;;;;;4113799;28;20039;-58
2022/12/20 06:24:54;;;;;;;101.43;39.10;;;-7.80;99.90;;;;;;4114736;28;20058;-60
2022/12/20 06:26:56;;;;;;;101.28;37.10;;;-7.80;99.90;;;;;;4113682;28;20023;-59
2022/12/20 06:29:00;;;;;;;88.85;34.40;;;-7.70;99.90;;;;;;4114653;28;20026;-58
2022/12/20 06:31:02;;;;;;;101.53;35.05;;;-7.70;99.90;;;;;;4113025;28;20042;-62
2022/12/20 06:33:03;;;;;;;95.80;33.50;;;-7.60;99.90;;;;;;4114799;28;20101;-60
2022/12/20 06:35:05;;;;;;;91.05;35.17;;;-7.70;99.90;;;;;;4114470;28;20097;-59
2022/12/20 06:37:06;;;;;;;96.18;36.60;;;-7.60;99.90;;;;;;4113938;28;20499;-59
2022/12/20 06:39:08;;;;;;;84.03;33.55;;;-7.50;99.90;;;;;;4114858;28;20040;-57
2022/12/20 06:41:09;;;;;;;94.60;34.88;;;-7.20;99.90;;;;;;4113976;28;20026;-60
2022/12/20 06:43:10;;;;;;;86.75;32.95;;;-7.00;99.90;;;;;;4114155;28;20035;-60
2022/12/20 06:45:11;;;;;;;93.72;33.60;;;-6.90;99.90;;;;;;4113868;28;20052;-60
2022/12/20 06:47:13;;;;;;;93.80;34.40;;;-6.80;99.90;;;;;;4114792;28;20438;-59
2022/12/20 06:49:14;;;;;;;88.50;32.78;;;-6.70;99.90;;;;;;4113902;28;20027;-60
2022/12/20 06:51:16;;;;;;;86.10;33.22;;;-6.70;99.90;;;;;;4113724;28;20400;-60
2022/12/20 06:53:17;;;;;;;81.13;31.85;;;-6.60;99.90;;;;;;4113719;28;20023;-62
2022/12/20 06:55:18;;;;;;;89.85;35.72;;;-6.60;99.90;;;;;;4114710;28;20046;-60
2022/12/20 06:57:19;;;;;;;88.38;34.28;;;-6.70;99.90;;;;;;4113251;28;20042;-60
2022/12/20 06:59:20;;;;;;;93.57;36.20;;;-6.80;99.90;;;;;;4114381;28;20046;-61
2022/12/20 07:01:21;;;;;;;99.05;36.00;;;-6.70;99.90;;;;;;4112776;28;20043;-60
2022/12/20 07:03:23;;;;;;;90.47;38.17;;;-6.60;99.90;;;;;;4114158;28;20031;-60
2022/12/20 07:05:24;;;;;;;83.70;36.10;;;-6.50;99.90;;;;;;4113025;28;20046;-59
2022/12/20 07:07:25;;;;;;;82.03;32.78;;;-6.30;99.90;;;;;;4114192;28;20055;-60
2022/12/20 07:09:26;;;;;;;86.53;33.63;;;-6.30;99.90;;;;;;4114263;28;20451;-59
2022/12/20 07:11:27;;;;;;;92.32;35.10;;;-6.10;99.90;;;;;;4113475;28;20031;-59
2022/12/20 07:13:29;;;;;;;80.35;33.70;;;-6.00;99.90;;;;;;4114464;28;20035;-62
2022/12/20 07:15:31;;;;;;;87.38;32.97;;;-5.90;99.90;;;;;;4112145;28;20109;-57
2022/12/20 07:17:32;;;;;;;89.68;33.60;;;-5.80;99.90;;;;;;4096539;29;20824;-57
2022/12/20 07:19:35;;;;;;;93.32;37.13;;;-5.80;99.90;;;;;;4113461;28;20042;-58
2022/12/20 07:21:36;;;;;;;85.15;35.17;;;-5.70;99.90;;;;;;4114302;28;20376;-59
2022/12/20 07:23:37;;;;;;;96.25;39.40;;;-5.70;99.90;;;;;;4112217;28;20082;-60
2022/12/20 07:25:38;;;;;;;103.97;43.42;;;-5.60;99.90;;;;;;4114427;28;20030;-61
2022/12/20 07:27:39;;;;;;;109.28;44.30;;;-5.50;99.90;;;;;;4111581;28;20047;-62
2022/12/20 07:29:40;;;;;;;196.05;77.45;;;-5.40;99.90;;;;;;4114369;28;20086;-61
2022/12/20 07:31:42;;;;;;;149.02;57.75;;;-5.40;99.90;;;;;;4112582;28;20042;-61
2022/12/20 07:33:43;;;;;;;174.43;69.40;;;-5.40;99.90;;;;;;4112909;28;20043;-60
2022/12/20 07:35:45;;;;;;;151.90;54.63;;;-5.30;99.90;;;;;;4112496;28;20063;-59
2022/12/20 07:37:46;;;;;;;146.93;59.65;;;-5.30;99.90;;;;;;4113760;28;20050;-60
2022/12/20 07:39:47;;;;;;;130.20;53.72;;;-5.40;99.90;;;;;;4113797;28;20483;-60
2022/12/20 07:41:51;;;;;;;124.85;53.00;;;-5.40;99.90;;;;;;4113042;28;20030;-59
2022/12/20 07:43:52;;;;;;;98.18;44.47;;;-5.40;99.90;;;;;;4112975;28;20403;-59
2022/12/20 07:45:55;;;;;;;99.03;41.25;;;-5.20;99.90;;;;;;4112065;28;20039;-58
2022/12/20 07:47:56;;;;;;;97.32;41.17;;;-5.10;99.90;;;;;;4113976;28;20026;-60
2022/12/20 07:49:57;;;;;;;107.20;42.10;;;-5.10;99.90;;;;;;4112231;28;20479;-61
2022/12/20 07:52:01;;;;;;;96.88;39.08;;;-5.00;99.90;;;;;;4113614;28;20038;-60
2022/12/20 07:54:25;;;;;;;98.95;38.67;;;-4.90;99.90;;;;;;4112840;28;20031;-58
2022/12/20 07:56:27;;;;;;;88.50;38.10;;;-4.90;99.90;;;;;;4113836;28;20186;-60
2022/12/20 07:58:29;;;;;;;106.07;41.10;;;-4.90;99.90;;;;;;4112735;28;20023;-59
2022/12/20 08:00:31;;;;;;;95.28;39.88;;;-4.90;99.90;;;;;;4112781;28;20042;-60
2022/12/20 08:03:01;;;;;;;102.18;39.80;;;-4.80;99.90;;;;;;4111849;28;20086;-59
2022/12/20 08:05:04;;;;;;;92.78;40.50;;;-4.80;99.90;;;;;;4111518;28;20042;-58
2022/12/20 08:07:07;;;;;;;104.00;41.67;;;-4.80;99.90;;;;;;4111810;28;20046;-59
2022/12/20 08:09:12;;;;;;;103.32;42.67;;;-4.80;99.90;;;;;;4113742;28;20042;-61
2022/12/20 08:11:13;;;;;;;88.63;37.67;;;-4.80;99.90;;;;;;4112380;28;20089;-60
2022/12/20 08:13:15;;;;;;;109.47;41.22;;;-4.80;99.90;;;;;;4113459;28;20081;-60
2022/12/20 08:15:18;;;;;;;94.07;39.17;;;-4.70;99.90;;;;;;4112312;28;20046;-60
2022/12/20 08:17:19;;;;;;;106.20;40.47;;;-4.70;99.90;;;;;;4113519;28;20097;-58
2022/12/20 08:19:20;;;;;;;98.13;40.70;;;-4.70;99.90;;;;;;4112044;28;20042;-60
2022/12/20 08:21:21;;;;;;;95.28;39.58;;;-4.60;99.90;;;;;;4113122;28;20475;-60
2022/12/20 08:23:22;;;;;;;87.22;39.40;;;-4.60;99.90;;;;;;4112701;28;20023;-59
2022/12/20 08:25:24;;;;;;;101.65;38.88;;;-4.60;99.90;;;;;;4111675;28;20090;-58
2022/12/20 08:27:25;;;;;;;94.25;36.10;;;-4.60;99.90;;;;;;4112896;28;20440;-60
2022/12/20 08:29:26;;;;;;;91.15;35.75;;;-4.60;99.90;;;;;;4112260;28;20038;-58
2022/12/20 08:31:27;;;;;;;83.13;36.97;;;-4.40;99.90;;;;;;4113069;28;20101;-59
2022/12/20 08:33:29;;;;;;;89.93;37.33;;;-4.30;99.90;;;;;;4111188;28;20427;-58
2022/12/20 08:35:30;;;;;;;94.47;37.90;;;-4.30;99.90;;;;;;4113095;28;20077;-60
2022/12/20 08:37:31;;;;;;;101.03;40.63;;;-4.20;99.90;;;;;;4112507;28;20082;-60
2022/12/20 08:39:32;;;;;;;102.72;40.55;;;-4.30;99.90;;;;;;4112319;28;20042;-59
2022/12/20 08:41:36;;;;;;;94.35;40.92;;;-4.30;99.90;;;;;;4110797;28;20035;-59
2022/12/20 08:43:38;;;;;;;101.68;39.40;;;-4.30;99.90;;;;;;4113132;28;20030;-57
2022/12/20 08:45:39;;;;;;;99.68;39.72;;;-4.20;99.90;;;;;;4111903;28;20030;-60
2022/12/20 08:47:40;;;;;;;105.30;41.97;;;-4.10;99.90;;;;;;4112949;28;20027;-56
2022/12/20 08:49:41;;;;;;;91.47;38.38;;;-4.00;99.90;;;;;;4111574;28;20095;-61
2022/12/20 08:51:42;;;;;;;94.85;36.13;;;-3.90;99.90;;;;;;4112512;28;20034;-56
2022/12/20 08:53:43;;;;;;;86.15;36.55;;;-3.80;99.90;;;;;;4111575;28;20447;-62
2022/12/20 08:55:45;;;;;;;76.18;32.97;;;-3.50;99.90;;;;;;4112218;28;20042;-62
2022/12/20 08:57:46;;;;;;;72.13;30.80;;;-3.20;99.90;;;;;;4112216;28;20030;-61
2022/12/20 08:59:47;;;;;;;70.40;29.07;;;-3.00;99.90;;;;;;4111138;28;20327;-62
2022/12/20 09:01:49;;;;;;;70.63;30.42;;;-2.70;99.90;;;;;;4112615;28;20327;-62
2022/12/20 09:03:50;;;;;;;64.53;27.73;;;-2.70;99.90;;;;;;4111728;28;20027;-65
2022/12/20 09:05:51;;;;;;;54.10;25.83;;;-2.60;99.90;;;;;;4095026;29;20265;-60
2022/12/20 09:07:53;;;;;;;55.93;25.60;;;-2.50;99.90;;;;;;4112166;28;20769;-61
2022/12/20 09:09:54;;;;;;;52.23;24.07;;;-2.40;99.90;;;;;;4112741;28;20269;-58
2022/12/20 09:11:56;;;;;;;61.30;26.90;;;-2.40;99.90;;;;;;4111492;28;20323;-59
2022/12/20 09:13:58;;;;;;;59.63;26.40;;;-2.50;99.90;;;;;;4112574;28;20749;-58
2022/12/20 09:16:01;;;;;;;58.73;27.67;;;-2.50;99.90;;;;;;4111541;28;20348;-59
2022/12/20 09:18:03;;;;;;;59.87;26.03;;;-2.50;99.90;;;;;;4112608;28;20288;-60
2022/12/20 09:20:04;;;;;;;68.37;27.53;;;-2.50;99.90;;;;;;4111313;28;20264;-59
2022/12/20 09:22:06;;;;;;;68.70;28.77;;;-2.30;99.90;;;;;;4111542;28;20615;-59
2022/12/20 09:24:08;;;;;;;64.20;28.33;;;-2.20;99.90;;;;;;4111639;28;20343;-60
2022/12/20 09:26:12;;;;;;;59.10;25.67;;;-2.20;99.90;;;;;;4111235;28;20264;-60
2022/12/20 09:28:13;;;;;;;61.57;26.37;;;-2.40;99.90;;;;;;4111675;28;20804;-59
2022/12/20 09:30:14;;;;;;;74.83;29.80;;;-2.50;99.90;;;;;;4111830;28;20265;-61
2022/12/20 09:32:16;;;;;;;73.87;31.43;;;-2.60;99.90;;;;;;4111929;28;20245;-63
2022/12/20 09:34:17;;;;;;;72.47;30.20;;;-2.50;99.90;;;;;;4111420;28;20268;-61
2022/12/20 09:36:19;;;;;;;69.43;30.13;;;-2.50;99.90;;;;;;4112372;28;20358;-62
2022/12/20 09:38:20;;;;;;;62.87;28.17;;;-2.70;99.90;;;;;;4111141;28;20339;-60
2022/12/20 09:40:24;;;;;;;61.83;28.23;;;-2.60;99.90;;;;;;4112183;28;20597;-61
2022/12/20 09:42:28;;;;;;;52.43;24.20;;;-2.60;99.90;;;;;;4111101;28;20737;-61
2022/12/20 09:44:39;;;;;;;56.47;25.33;;;-2.50;99.90;;;;;;4112136;28;20268;-60
2022/12/20 09:46:42;;;;;;;51.57;24.67;;;-2.40;99.90;;;;;;4111335;28;20273;-60
2022/12/20 09:48:44;;;;;;;47.23;22.23;;;-2.40;99.90;;;;;;4112540;28;20265;-61
2022/12/20 09:51:06;;;;;;;55.20;21.10;;;-2.40;99.90;;;;;;4111703;28;20268;-59
2022/12/20 09:54:01;;;;;;;53.47;22.93;;;-2.30;99.90;;;;;;4114924;28;20261;-60
2022/12/20 09:56:16;;;;;;;42.03;20.80;;;-2.20;99.90;;;;;;4064923;29;20306;-61
2022/12/20 09:58:41;;;;;;;56.13;24.27;;;-2.20;99.90;;;;;;4104971;28;20269;-58
2022/12/20 10:00:46;;;;;;;48.33;23.87;;;-2.30;99.90;;;;;;4114780;28;20265;-62
2022/12/20 10:02:48;;;;;;;54.90;24.57;;;-2.40;99.90;;;;;;4114761;28;20261;-60
2022/12/20 10:04:50;;;;;;;58.67;24.27;;;-2.40;99.90;;;;;;4114857;28;20376;-60
2022/12/20 10:06:57;;;;;;;54.70;25.67;;;-2.60;99.90;;;;;;4115039;28;20673;-60
2022/12/20 10:09:12;;;;;;;52.13;24.03;;;-2.60;99.90;;;;;;4114120;28;20630;-61
2022/12/20 10:11:31;;;;;;;55.33;22.77;;;-2.60;99.90;;;;;;4114782;28;20296;-60
2022/12/20 10:13:54;;;;;;;53.33;22.67;;;-2.60;99.90;;;;;;4114663;28;20268;-66
2022/12/20 10:16:20;;;;;;;44.50;21.03;;;-2.60;99.90;;;;;;4114154;28;20662;-64
2022/12/20 10:18:52;;;;;;;49.90;22.73;;;-2.60;99.90;;;;;;4114730;28;20340;-60
2022/12/20 10:21:04;;;;;;;46.97;20.87;;;-2.60;99.90;;;;;;4113734;28;20661;-61
2022/12/20 10:23:22;;;;;;;49.70;22.53;;;-2.40;99.90;;;;;;4114875;28;20339;-61
2022/12/20 10:25:30;;;;;;;47.03;21.77;;;-2.20;99.90;;;;;;4114064;28;20347;-61
2022/12/20 10:27:36;;;;;;;54.07;24.73;;;-2.20;99.90;;;;;;4115062;28;20661;-61
2022/12/20 10:29:37;;;;;;;53.73;22.63;;;-2.10;99.90;;;;;;4113959;28;20265;-60
2022/12/20 10:31:39;;;;;;;48.43;21.87;;;-2.10;99.90;;;;;;4114997;28;20311;-61
2022/12/20 10:33:40;;;;;;;51.20;24.60;;;-2.10;99.90;;;;;;4113819;28;20397;-62
2022/12/20 10:35:42;;;;;;;54.47;24.33;;;-2.10;99.90;;;;;;4114512;28;20363;-60
2022/12/20 10:37:59;;;;;;;62.00;27.57;;;-2.20;99.90;;;;;;4114382;28;20352;-61
2022/12/20 10:40:00;;;;;;;52.23;24.80;;;-2.10;99.90;;;;;;4114754;28;20277;-61